sensor_id;sensor_type;location;lat;lon;timestamp;P1;durP1;ratioP1;P2;durP2;ratioP2
35693;SDS011;21812;55.536;37.664;2023-12-20T00:01:21;0.80;;;0.60;;
35693;SDS011;21812;55.536;37.664;2023-12-20T00:03:47;1.00;;;0.80;;
35693;SDS011;21812;55.536;37.664;2023-12-20T00:06:13;0.60;;;0.60;;
35693;SDS011;21812;55.536;37.664;2023-12-20T00:08:38;1.70;;;1.20;;
35693;SDS011;21812;55.536;37.664;2023-12-20T00:11:04;0.98;;;0.88;;
35693;SDS011;21812;55.536;37.664;2023-12-20T00:13:30;1.33;;;1.23;;
35693;SDS011;21812;55.536;37.664;2023-12-20T00:15:56;0.88;;;0.75;;
35693;SDS011;21812;55.536;37.664;2023-12-20T00:18:21;1.33;;;0.95;;
35693;SDS011;21812;55.536;37.664;2023-12-20T00:20:47;1.00;;;0.70;;
35693;SDS011;21812;55.536;37.664;2023-12-20T00:23:13;2.20;;;0.68;;
35693;SDS011;21812;55.536;37.664;2023-12-20T00:25:38;1.20;;;1.00;;
35693;SDS011;21812;55.536;37.664;2023-12-20T00:28:04;1.20;;;0.90;;
35693;SDS011;21812;55.536;37.664;2023-12-20T00:30:30;2.83;;;1.17;;
35693;SDS011;21812;55.536;37.664;2023-12-20T00:32:55;1.63;;;0.88;;
35693;SDS011;21812;55.536;37.664;2023-12-20T00:35:22;0.77;;;0.65;;
35693;SDS011;21812;55.536;37.664;2023-12-20T00:37:47;1.25;;;0.82;;
35693;SDS011;21812;55.536;37.664;2023-12-20T00:40:13;1.65;;;0.88;;
35693;SDS011;21812;55.536;37.664;2023-12-20T00:42:39;1.48;;;0.98;;
35693;SDS011;21812;55.536;37.664;2023-12-20T00:45:05;1.30;;;1.00;;
35693;SDS011;21812;55.536;37.664;2023-12-20T00:47:31;1.77;;;1.20;;
35693;SDS011;21812;55.536;37.664;2023-12-20T00:49:57;1.73;;;1.10;;
35693;SDS011;21812;55.536;37.664;2023-12-20T00:52:24;3.08;;;1.60;;
35693;SDS011;21812;55.536;37.664;2023-12-20T00:54:50;3.67;;;1.20;;
35693;SDS011;21812;55.536;37.664;2023-12-20T00:57:16;2.22;;;1.60;;
35693;SDS011;21812;55.536;37.664;2023-12-20T00:59:42;1.83;;;1.30;;
35693;SDS011;21812;55.536;37.664;2023-12-20T01:02:07;1.45;;;1.17;;
35693;SDS011;21812;55.536;37.664;2023-12-20T01:04:34;2.58;;;1.35;;
35693;SDS011;21812;55.536;37.664;2023-12-20T01:07:00;1.60;;;1.13;;
35693;SDS011;21812;55.536;37.664;2023-12-20T01:09:25;2.05;;;1.23;;
35693;SDS011;21812;55.536;37.664;2023-12-20T01:11:54;2.20;;;1.38;;
35693;SDS011;21812;55.536;37.664;2023-12-20T01:14:20;1.88;;;1.00;;
35693;SDS011;21812;55.536;37.664;2023-12-20T01:16:46;1.88;;;1.30;;
35693;SDS011;21812;55.536;37.664;2023-12-20T01:19:12;2.00;;;1.10;;
35693;SDS011;21812;55.536;37.664;2023-12-20T01:21:39;2.20;;;1.25;;
35693;SDS011;21812;55.536;37.664;2023-12-20T01:24:05;1.85;;;1.17;;
35693;SDS011;21812;55.536;37.664;2023-12-20T01:26:31;1.10;;;0.60;;
35693;SDS011;21812;55.536;37.664;2023-12-20T01:28:57;1.05;;;0.70;;
35693;SDS011;21812;55.536;37.664;2023-12-20T01:31:22;0.88;;;0.60;;
35693;SDS011;21812;55.536;37.664;2023-12-20T01:33:48;1.15;;;0.63;;
35693;SDS011;21812;55.536;37.664;2023-12-20T01:36:14;3.75;;;1.38;;
35693;SDS011;21812;55.536;37.664;2023-12-20T01:38:39;0.85;;;0.43;;
35693;SDS011;21812;55.536;37.664;2023-12-20T01:41:05;3.30;;;0.73;;
35693;SDS011;21812;55.536;37.664;2023-12-20T01:43:31;2.25;;;1.27;;
35693;SDS011;21812;55.536;37.664;2023-12-20T01:45:57;1.55;;;0.50;;
35693;SDS011;21812;55.536;37.664;2023-12-20T01:48:23;1.27;;;0.60;;
35693;SDS011;21812;55.536;37.664;2023-12-20T01:50:51;1.10;;;0.60;;
35693;SDS011;21812;55.536;37.664;2023-12-20T01:53:17;3.08;;;0.95;;
35693;SDS011;21812;55.536;37.664;2023-12-20T01:55:45;1.00;;;0.40;;
35693;SDS011;21812;55.536;37.664;2023-12-20T01:58:14;1.15;;;0.65;;
35693;SDS011;21812;55.536;37.664;2023-12-20T02:00:40;0.90;;;0.50;;
35693;SDS011;21812;55.536;37.664;2023-12-20T02:03:06;1.77;;;1.20;;
35693;SDS011;21812;55.536;37.664;2023-12-20T02:05:33;1.58;;;0.50;;
35693;SDS011;21812;55.536;37.664;2023-12-20T02:08:01;2.05;;;0.50;;
35693;SDS011;21812;55.536;37.664;2023-12-20T02:10:27;1.17;;;0.45;;
35693;SDS011;21812;55.536;37.664;2023-12-20T02:12:55;1.00;;;0.43;;
35693;SDS011;21812;55.536;37.664;2023-12-20T02:15:21;1.13;;;0.22;;
35693;SDS011;21812;55.536;37.664;2023-12-20T02:17:47;0.80;;;0.47;;
35693;SDS011;21812;55.536;37.664;2023-12-20T02:20:33;2.55;;;0.60;;
35693;SDS011;21812;55.536;37.664;2023-12-20T02:22:59;1.65;;;0.45;;
35693;SDS011;21812;55.536;37.664;2023-12-20T02:25:24;1.58;;;0.40;;
35693;SDS011;21812;55.536;37.664;2023-12-20T02:27:50;3.10;;;0.68;;
35693;SDS011;21812;55.536;37.664;2023-12-20T02:30:17;1.38;;;0.20;;
35693;SDS011;21812;55.536;37.664;2023-12-20T02:32:42;0.98;;;0.80;;
35693;SDS011;21812;55.536;37.664;2023-12-20T02:35:08;0.60;;;0.30;;
35693;SDS011;21812;55.536;37.664;2023-12-20T02:37:34;0.40;;;0.32;;
35693;SDS011;21812;55.536;37.664;2023-12-20T02:39:59;0.60;;;0.43;;
35693;SDS011;21812;55.536;37.664;2023-12-20T02:42:25;0.80;;;0.43;;
35693;SDS011;21812;55.536;37.664;2023-12-20T02:44:51;2.50;;;0.80;;
35693;SDS011;21812;55.536;37.664;2023-12-20T02:47:16;0.70;;;0.43;;
35693;SDS011;21812;55.536;37.664;2023-12-20T02:49:42;1.65;;;1.20;;
35693;SDS011;21812;55.536;37.664;2023-12-20T02:52:08;2.40;;;1.05;;
35693;SDS011;21812;55.536;37.664;2023-12-20T02:54:33;2.30;;;1.20;;
35693;SDS011;21812;55.536;37.664;2023-12-20T02:56:59;2.13;;;1.10;;
35693;SDS011;21812;55.536;37.664;2023-12-20T02:59:25;3.50;;;1.40;;
35693;SDS011;21812;55.536;37.664;2023-12-20T03:01:50;1.85;;;1.10;;
35693;SDS011;21812;55.536;37.664;2023-12-20T03:04:16;5.57;;;2.88;;
35693;SDS011;21812;55.536;37.664;2023-12-20T03:06:41;2.08;;;1.27;;
35693;SDS011;21812;55.536;37.664;2023-12-20T03:09:07;2.95;;;1.27;;
35693;SDS011;21812;55.536;37.664;2023-12-20T03:11:33;2.38;;;1.20;;
35693;SDS011;21812;55.536;37.664;2023-12-20T03:13:58;4.03;;;1.55;;
35693;SDS011;21812;55.536;37.664;2023-12-20T03:16:24;1.65;;;1.55;;
35693;SDS011;21812;55.536;37.664;2023-12-20T03:18:51;2.30;;;1.65;;
35693;SDS011;21812;55.536;37.664;2023-12-20T03:21:16;4.57;;;1.55;;
35693;SDS011;21812;55.536;37.664;2023-12-20T03:23:42;4.43;;;2.10;;
35693;SDS011;21812;55.536;37.664;2023-12-20T03:26:08;4.53;;;1.85;;
35693;SDS011;21812;55.536;37.664;2023-12-20T03:28:34;8.70;;;1.40;;
35693;SDS011;21812;55.536;37.664;2023-12-20T03:31:01;2.25;;;1.52;;
35693;SDS011;21812;55.536;37.664;2023-12-20T03:33:28;4.25;;;1.77;;
35693;SDS011;21812;55.536;37.664;2023-12-20T03:35:54;4.30;;;2.03;;
35693;SDS011;21812;55.536;37.664;2023-12-20T03:38:20;2.08;;;1.40;;
35693;SDS011;21812;55.536;37.664;2023-12-20T03:40:46;2.40;;;1.58;;
35693;SDS011;21812;55.536;37.664;2023-12-20T03:43:12;2.88;;;1.73;;
35693;SDS011;21812;55.536;37.664;2023-12-20T03:45:38;2.20;;;1.60;;
35693;SDS011;21812;55.536;37.664;2023-12-20T03:48:04;2.30;;;1.45;;
35693;SDS011;21812;55.536;37.664;2023-12-20T03:50:30;2.83;;;2.03;;
35693;SDS011;21812;55.536;37.664;2023-12-20T03:52:55;4.00;;;1.85;;
35693;SDS011;21812;55.536;37.664;2023-12-20T03:55:21;5.47;;;1.85;;
35693;SDS011;21812;55.536;37.664;2023-12-20T03:57:47;3.75;;;1.70;;
35693;SDS011;21812;55.536;37.664;2023-12-20T04:00:13;2.33;;;1.95;;
35693;SDS011;21812;55.536;37.664;2023-12-20T04:02:39;3.03;;;2.03;;
35693;SDS011;21812;55.536;37.664;2023-12-20T04:05:06;3.40;;;1.77;;
35693;SDS011;21812;55.536;37.664;2023-12-20T04:07:33;1.90;;;1.52;;
35693;SDS011;21812;55.536;37.664;2023-12-20T04:10:00;1.75;;;1.48;;
35693;SDS011;21812;55.536;37.664;2023-12-20T04:12:26;2.25;;;1.77;;
35693;SDS011;21812;55.536;37.664;2023-12-20T04:14:53;2.55;;;1.83;;
35693;SDS011;21812;55.536;37.664;2023-12-20T04:17:19;2.60;;;2.20;;
35693;SDS011;21812;55.536;37.664;2023-12-20T04:19:45;4.90;;;1.80;;
35693;SDS011;21812;55.536;37.664;2023-12-20T04:22:11;2.50;;;1.90;;
35693;SDS011;21812;55.536;37.664;2023-12-20T04:24:37;3.35;;;1.85;;
35693;SDS011;21812;55.536;37.664;2023-12-20T04:27:02;3.65;;;2.78;;
35693;SDS011;21812;55.536;37.664;2023-12-20T04:29:28;3.83;;;2.17;;
35693;SDS011;21812;55.536;37.664;2023-12-20T04:31:54;3.47;;;2.50;;
35693;SDS011;21812;55.536;37.664;2023-12-20T04:34:20;3.63;;;2.05;;
35693;SDS011;21812;55.536;37.664;2023-12-20T04:36:46;3.70;;;2.42;;
35693;SDS011;21812;55.536;37.664;2023-12-20T04:39:12;3.15;;;2.20;;
35693;SDS011;21812;55.536;37.664;2023-12-20T04:41:38;3.40;;;1.98;;
35693;SDS011;21812;55.536;37.664;2023-12-20T04:44:04;2.08;;;1.85;;
35693;SDS011;21812;55.536;37.664;2023-12-20T04:46:31;5.10;;;2.65;;
35693;SDS011;21812;55.536;37.664;2023-12-20T04:48:57;3.63;;;1.83;;
35693;SDS011;21812;55.536;37.664;2023-12-20T04:51:22;2.65;;;2.10;;
35693;SDS011;21812;55.536;37.664;2023-12-20T04:53:48;2.65;;;1.90;;
35693;SDS011;21812;55.536;37.664;2023-12-20T04:56:14;2.45;;;2.00;;
35693;SDS011;21812;55.536;37.664;2023-12-20T04:58:40;2.78;;;1.90;;
35693;SDS011;21812;55.536;37.664;2023-12-20T05:01:06;1.92;;;1.70;;
35693;SDS011;21812;55.536;37.664;2023-12-20T05:03:33;3.20;;;1.90;;
35693;SDS011;21812;55.536;37.664;2023-12-20T05:05:59;4.82;;;1.77;;
35693;SDS011;21812;55.536;37.664;2023-12-20T05:08:25;2.42;;;1.60;;
35693;SDS011;21812;55.536;37.664;2023-12-20T05:10:56;2.78;;;1.52;;
35693;SDS011;21812;55.536;37.664;2023-12-20T05:13:22;3.28;;;1.77;;
35693;SDS011;21812;55.536;37.664;2023-12-20T05:15:48;4.05;;;2.38;;
35693;SDS011;21812;55.536;37.664;2023-12-20T05:18:13;3.60;;;1.92;;
35693;SDS011;21812;55.536;37.664;2023-12-20T05:20:39;5.13;;;1.95;;
35693;SDS011;21812;55.536;37.664;2023-12-20T05:23:05;10.10;;;3.35;;
35693;SDS011;21812;55.536;37.664;2023-12-20T05:25:31;4.07;;;2.28;;
35693;SDS011;21812;55.536;37.664;2023-12-20T05:27:57;2.30;;;2.10;;
35693;SDS011;21812;55.536;37.664;2023-12-20T05:30:23;2.65;;;1.75;;
35693;SDS011;21812;55.536;37.664;2023-12-20T05:32:49;7.43;;;2.22;;
35693;SDS011;21812;55.536;37.664;2023-12-20T05:35:14;2.22;;;1.52;;
35693;SDS011;21812;55.536;37.664;2023-12-20T05:37:41;3.10;;;2.45;;
35693;SDS011;21812;55.536;37.664;2023-12-20T05:40:07;4.65;;;2.33;;
35693;SDS011;21812;55.536;37.664;2023-12-20T05:42:36;2.53;;;1.73;;
35693;SDS011;21812;55.536;37.664;2023-12-20T05:45:03;3.75;;;2.70;;
35693;SDS011;21812;55.536;37.664;2023-12-20T05:47:31;2.92;;;2.08;;
35693;SDS011;21812;55.536;37.664;2023-12-20T05:49:57;3.50;;;2.22;;
35693;SDS011;21812;55.536;37.664;2023-12-20T05:52:24;3.28;;;1.92;;
35693;SDS011;21812;55.536;37.664;2023-12-20T05:54:50;2.92;;;1.77;;
35693;SDS011;21812;55.536;37.664;2023-12-20T05:57:15;2.85;;;2.17;;
35693;SDS011;21812;55.536;37.664;2023-12-20T05:59:41;2.97;;;1.52;;
35693;SDS011;21812;55.536;37.664;2023-12-20T06:02:07;2.83;;;1.70;;
35693;SDS011;21812;55.536;37.664;2023-12-20T06:04:32;4.53;;;2.38;;
35693;SDS011;21812;55.536;37.664;2023-12-20T06:06:58;3.42;;;1.70;;
35693;SDS011;21812;55.536;37.664;2023-12-20T06:09:28;2.72;;;1.77;;
35693;SDS011;21812;55.536;37.664;2023-12-20T06:11:54;3.22;;;2.38;;
35693;SDS011;21812;55.536;37.664;2023-12-20T06:14:19;4.53;;;1.85;;
35693;SDS011;21812;55.536;37.664;2023-12-20T06:16:45;2.50;;;2.00;;
35693;SDS011;21812;55.536;37.664;2023-12-20T06:19:11;2.45;;;1.65;;
35693;SDS011;21812;55.536;37.664;2023-12-20T06:21:37;2.47;;;1.70;;
35693;SDS011;21812;55.536;37.664;2023-12-20T06:24:03;1.85;;;1.40;;
35693;SDS011;21812;55.536;37.664;2023-12-20T06:26:29;1.83;;;1.17;;
35693;SDS011;21812;55.536;37.664;2023-12-20T06:28:55;1.75;;;1.30;;
35693;SDS011;21812;55.536;37.664;2023-12-20T06:31:20;2.50;;;1.48;;
35693;SDS011;21812;55.536;37.664;2023-12-20T06:33:46;1.92;;;1.27;;
35693;SDS011;21812;55.536;37.664;2023-12-20T06:36:12;1.80;;;1.42;;
35693;SDS011;21812;55.536;37.664;2023-12-20T06:38:38;2.45;;;1.30;;
35693;SDS011;21812;55.536;37.664;2023-12-20T06:41:04;3.10;;;1.05;;
35693;SDS011;21812;55.536;37.664;2023-12-20T06:43:31;2.70;;;1.85;;
35693;SDS011;21812;55.536;37.664;2023-12-20T06:45:57;2.30;;;1.50;;
35693;SDS011;21812;55.536;37.664;2023-12-20T06:48:23;5.10;;;1.73;;
35693;SDS011;21812;55.536;37.664;2023-12-20T06:50:49;2.10;;;1.48;;
35693;SDS011;21812;55.536;37.664;2023-12-20T06:53:15;6.22;;;1.40;;
35693;SDS011;21812;55.536;37.664;2023-12-20T06:55:43;2.05;;;1.20;;
35693;SDS011;21812;55.536;37.664;2023-12-20T07:00:53;2.90;;;1.10;;
35693;SDS011;21812;55.536;37.664;2023-12-20T07:03:18;3.50;;;1.27;;
35693;SDS011;21812;55.536;37.664;2023-12-20T07:05:44;3.05;;;1.25;;
35693;SDS011;21812;55.536;37.664;2023-12-20T07:08:10;2.15;;;1.02;;
35693;SDS011;21812;55.536;37.664;2023-12-20T07:10:36;1.90;;;1.38;;
35693;SDS011;21812;55.536;37.664;2023-12-20T07:13:02;1.50;;;0.90;;
35693;SDS011;21812;55.536;37.664;2023-12-20T07:15:28;1.88;;;1.30;;
35693;SDS011;21812;55.536;37.664;2023-12-20T07:17:55;2.90;;;1.08;;
35693;SDS011;21812;55.536;37.664;2023-12-20T07:20:20;1.55;;;1.10;;
35693;SDS011;21812;55.536;37.664;2023-12-20T07:22:46;3.17;;;0.90;;
35693;SDS011;21812;55.536;37.664;2023-12-20T07:25:12;2.95;;;1.17;;
35693;SDS011;21812;55.536;37.664;2023-12-20T07:27:38;3.53;;;1.27;;
35693;SDS011;21812;55.536;37.664;2023-12-20T07:30:04;1.98;;;1.10;;
35693;SDS011;21812;55.536;37.664;2023-12-20T07:32:30;1.10;;;0.65;;
35693;SDS011;21812;55.536;37.664;2023-12-20T07:34:57;1.98;;;1.17;;
35693;SDS011;21812;55.536;37.664;2023-12-20T07:37:23;2.05;;;1.05;;
35693;SDS011;21812;55.536;37.664;2023-12-20T07:39:48;2.33;;;1.35;;
35693;SDS011;21812;55.536;37.664;2023-12-20T07:42:14;1.88;;;1.08;;
35693;SDS011;21812;55.536;37.664;2023-12-20T07:44:40;2.67;;;1.27;;
35693;SDS011;21812;55.536;37.664;2023-12-20T07:47:05;2.13;;;1.20;;
35693;SDS011;21812;55.536;37.664;2023-12-20T07:49:31;1.45;;;1.10;;
35693;SDS011;21812;55.536;37.664;2023-12-20T07:51:57;2.15;;;1.15;;
35693;SDS011;21812;55.536;37.664;2023-12-20T07:54:23;2.30;;;1.10;;
35693;SDS011;21812;55.536;37.664;2023-12-20T07:56:48;2.95;;;1.23;;
35693;SDS011;21812;55.536;37.664;2023-12-20T07:59:14;1.42;;;1.10;;
35693;SDS011;21812;55.536;37.664;2023-12-20T08:01:40;2.58;;;1.33;;
35693;SDS011;21812;55.536;37.664;2023-12-20T08:04:05;2.25;;;1.20;;
35693;SDS011;21812;55.536;37.664;2023-12-20T08:06:31;3.15;;;1.80;;
35693;SDS011;21812;55.536;37.664;2023-12-20T08:08:57;1.65;;;1.15;;
35693;SDS011;21812;55.536;37.664;2023-12-20T08:11:22;1.33;;;1.10;;
35693;SDS011;21812;55.536;37.664;2023-12-20T08:13:48;0.90;;;0.80;;
35693;SDS011;21812;55.536;37.664;2023-12-20T08:16:14;2.42;;;1.23;;
35693;SDS011;21812;55.536;37.664;2023-12-20T08:18:41;2.45;;;0.80;;
35693;SDS011;21812;55.536;37.664;2023-12-20T08:21:07;1.80;;;1.30;;
35693;SDS011;21812;55.536;37.664;2023-12-20T08:23:33;1.90;;;1.00;;
35693;SDS011;21812;55.536;37.664;2023-12-20T08:26:06;3.85;;;2.30;;
35693;SDS011;21812;55.536;37.664;2023-12-20T08:28:32;3.92;;;1.35;;
35693;SDS011;21812;55.536;37.664;2023-12-20T08:30:58;3.38;;;1.30;;
35693;SDS011;21812;55.536;37.664;2023-12-20T08:33:24;3.42;;;1.48;;
35693;SDS011;21812;55.536;37.664;2023-12-20T08:35:50;2.20;;;1.95;;
35693;SDS011;21812;55.536;37.664;2023-12-20T08:38:16;3.55;;;1.70;;
35693;SDS011;21812;55.536;37.664;2023-12-20T08:40:43;2.88;;;1.42;;
35693;SDS011;21812;55.536;37.664;2023-12-20T08:43:09;3.15;;;1.35;;
35693;SDS011;21812;55.536;37.664;2023-12-20T08:45:35;3.15;;;1.20;;
35693;SDS011;21812;55.536;37.664;2023-12-20T08:48:01;1.95;;;1.60;;
35693;SDS011;21812;55.536;37.664;2023-12-20T08:50:26;4.55;;;1.60;;
35693;SDS011;21812;55.536;37.664;2023-12-20T08:52:52;4.32;;;1.33;;
35693;SDS011;21812;55.536;37.664;2023-12-20T08:55:18;2.70;;;1.48;;
35693;SDS011;21812;55.536;37.664;2023-12-20T08:57:44;2.40;;;1.60;;
35693;SDS011;21812;55.536;37.664;2023-12-20T09:00:10;3.80;;;2.33;;
35693;SDS011;21812;55.536;37.664;2023-12-20T09:02:36;5.15;;;1.77;;
35693;SDS011;21812;55.536;37.664;2023-12-20T09:05:03;3.53;;;1.60;;
35693;SDS011;21812;55.536;37.664;2023-12-20T09:07:30;2.42;;;1.67;;
35693;SDS011;21812;55.536;37.664;2023-12-20T09:09:57;3.80;;;2.08;;
35693;SDS011;21812;55.536;37.664;2023-12-20T09:12:24;5.68;;;2.13;;
35693;SDS011;21812;55.536;37.664;2023-12-20T09:14:51;5.47;;;2.63;;
35693;SDS011;21812;55.536;37.664;2023-12-20T09:17:17;8.52;;;2.25;;
35693;SDS011;21812;55.536;37.664;2023-12-20T09:19:44;2.65;;;1.73;;
35693;SDS011;21812;55.536;37.664;2023-12-20T09:22:10;2.03;;;1.30;;
35693;SDS011;21812;55.536;37.664;2023-12-20T09:24:36;2.60;;;1.58;;
35693;SDS011;21812;55.536;37.664;2023-12-20T09:27:04;3.15;;;1.80;;
35693;SDS011;21812;55.536;37.664;2023-12-20T09:29:30;1.98;;;1.73;;
35693;SDS011;21812;55.536;37.664;2023-12-20T09:31:56;2.03;;;1.67;;
35693;SDS011;21812;55.536;37.664;2023-12-20T09:34:22;1.67;;;1.08;;
35693;SDS011;21812;55.536;37.664;2023-12-20T09:36:48;2.22;;;1.40;;
35693;SDS011;21812;55.536;37.664;2023-12-20T09:39:14;1.52;;;1.20;;
35693;SDS011;21812;55.536;37.664;2023-12-20T09:41:44;2.45;;;1.20;;
35693;SDS011;21812;55.536;37.664;2023-12-20T09:44:13;1.35;;;1.05;;
35693;SDS011;21812;55.536;37.664;2023-12-20T09:46:42;2.10;;;1.38;;
35693;SDS011;21812;55.536;37.664;2023-12-20T09:49:09;2.28;;;1.23;;
35693;SDS011;21812;55.536;37.664;2023-12-20T09:51:36;1.77;;;1.55;;
35693;SDS011;21812;55.536;37.664;2023-12-20T09:54:05;3.00;;;1.17;;
35693;SDS011;21812;55.536;37.664;2023-12-20T09:56:30;1.55;;;1.15;;
35693;SDS011;21812;55.536;37.664;2023-12-20T09:58:57;2.58;;;1.88;;
35693;SDS011;21812;55.536;37.664;2023-12-20T10:01:23;1.42;;;0.80;;
35693;SDS011;21812;55.536;37.664;2023-12-20T10:03:50;0.90;;;0.80;;
35693;SDS011;21812;55.536;37.664;2023-12-20T10:06:19;1.58;;;1.08;;
35693;SDS011;21812;55.536;37.664;2023-12-20T10:08:45;1.27;;;0.85;;
35693;SDS011;21812;55.536;37.664;2023-12-20T10:11:11;1.23;;;1.05;;
35693;SDS011;21812;55.536;37.664;2023-12-20T10:13:40;3.95;;;1.10;;
35693;SDS011;21812;55.536;37.664;2023-12-20T10:16:07;1.30;;;1.00;;
35693;SDS011;21812;55.536;37.664;2023-12-20T10:18:32;1.45;;;0.80;;
35693;SDS011;21812;55.536;37.664;2023-12-20T10:20:58;1.83;;;1.25;;
35693;SDS011;21812;55.536;37.664;2023-12-20T10:23:24;1.95;;;1.05;;
35693;SDS011;21812;55.536;37.664;2023-12-20T10:25:57;1.77;;;1.50;;
35693;SDS011;21812;55.536;37.664;2023-12-20T10:28:23;1.90;;;1.30;;
35693;SDS011;21812;55.536;37.664;2023-12-20T10:30:53;1.33;;;1.20;;
35693;SDS011;21812;55.536;37.664;2023-12-20T10:33:26;1.83;;;1.33;;
35693;SDS011;21812;55.536;37.664;2023-12-20T10:35:54;2.10;;;1.33;;
35693;SDS011;21812;55.536;37.664;2023-12-20T10:38:20;5.65;;;1.80;;
35693;SDS011;21812;55.536;37.664;2023-12-20T10:40:46;2.95;;;1.30;;
35693;SDS011;21812;55.536;37.664;2023-12-20T10:43:12;2.22;;;1.50;;
35693;SDS011;21812;55.536;37.664;2023-12-20T10:45:38;1.85;;;1.67;;
35693;SDS011;21812;55.536;37.664;2023-12-20T10:48:06;1.55;;;1.40;;
35693;SDS011;21812;55.536;37.664;2023-12-20T10:50:32;2.75;;;1.38;;
35693;SDS011;21812;55.536;37.664;2023-12-20T10:53:03;2.38;;;1.40;;
35693;SDS011;21812;55.536;37.664;2023-12-20T10:55:29;1.48;;;1.27;;
35693;SDS011;21812;55.536;37.664;2023-12-20T10:58:00;2.65;;;1.40;;
35693;SDS011;21812;55.536;37.664;2023-12-20T11:00:26;1.95;;;1.48;;
35693;SDS011;21812;55.536;37.664;2023-12-20T11:02:55;2.38;;;1.55;;
35693;SDS011;21812;55.536;37.664;2023-12-20T11:08:22;2.70;;;1.65;;
35693;SDS011;21812;55.536;37.664;2023-12-20T11:11:07;2.25;;;1.40;;
35693;SDS011;21812;55.536;37.664;2023-12-20T11:14:01;3.55;;;1.55;;
35693;SDS011;21812;55.536;37.664;2023-12-20T11:16:29;2.25;;;1.65;;
35693;SDS011;21812;55.536;37.664;2023-12-20T11:18:56;2.45;;;1.67;;
35693;SDS011;21812;55.536;37.664;2023-12-20T11:21:22;6.28;;;1.92;;
35693;SDS011;21812;55.536;37.664;2023-12-20T11:23:48;1.60;;;1.38;;
35693;SDS011;21812;55.536;37.664;2023-12-20T11:26:15;5.90;;;2.28;;
35693;SDS011;21812;55.536;37.664;2023-12-20T11:28:42;2.90;;;1.90;;
35693;SDS011;21812;55.536;37.664;2023-12-20T11:31:08;4.95;;;1.67;;
35693;SDS011;21812;55.536;37.664;2023-12-20T11:33:36;3.35;;;1.67;;
35693;SDS011;21812;55.536;37.664;2023-12-20T11:36:03;1.83;;;1.27;;
35693;SDS011;21812;55.536;37.664;2023-12-20T11:38:39;2.50;;;1.45;;
35693;SDS011;21812;55.536;37.664;2023-12-20T11:41:19;4.97;;;1.80;;
35693;SDS011;21812;55.536;37.664;2023-12-20T11:43:48;2.28;;;1.35;;
35693;SDS011;21812;55.536;37.664;2023-12-20T11:46:14;2.58;;;1.92;;
35693;SDS011;21812;55.536;37.664;2023-12-20T11:48:39;3.17;;;1.63;;
35693;SDS011;21812;55.536;37.664;2023-12-20T11:51:09;2.65;;;1.83;;
35693;SDS011;21812;55.536;37.664;2023-12-20T11:53:36;3.88;;;2.13;;
35693;SDS011;21812;55.536;37.664;2023-12-20T11:56:02;4.82;;;1.85;;
35693;SDS011;21812;55.536;37.664;2023-12-20T11:58:29;2.30;;;2.00;;
35693;SDS011;21812;55.536;37.664;2023-12-20T12:00:56;3.40;;;2.35;;
35693;SDS011;21812;55.536;37.664;2023-12-20T12:03:22;4.68;;;3.00;;
35693;SDS011;21812;55.536;37.664;2023-12-20T12:05:49;3.33;;;2.30;;
35693;SDS011;21812;55.536;37.664;2023-12-20T12:08:14;4.43;;;2.15;;
35693;SDS011;21812;55.536;37.664;2023-12-20T12:10:40;2.97;;;2.20;;
35693;SDS011;21812;55.536;37.664;2023-12-20T12:13:06;3.05;;;2.10;;
35693;SDS011;21812;55.536;37.664;2023-12-20T12:15:32;2.75;;;1.65;;
35693;SDS011;21812;55.536;37.664;2023-12-20T12:17:58;2.92;;;1.88;;
35693;SDS011;21812;55.536;37.664;2023-12-20T12:20:24;3.88;;;1.80;;
35693;SDS011;21812;55.536;37.664;2023-12-20T12:23:23;2.33;;;1.92;;
35693;SDS011;21812;55.536;37.664;2023-12-20T12:25:47;6.57;;;1.83;;
35693;SDS011;21812;55.536;37.664;2023-12-20T12:28:14;2.13;;;1.65;;
35693;SDS011;21812;55.536;37.664;2023-12-20T12:30:39;3.67;;;2.25;;
35693;SDS011;21812;55.536;37.664;2023-12-20T12:33:05;3.65;;;2.00;;
35693;SDS011;21812;55.536;37.664;2023-12-20T12:35:31;2.22;;;1.27;;
35693;SDS011;21812;55.536;37.664;2023-12-20T12:37:58;2.63;;;1.75;;
35693;SDS011;21812;55.536;37.664;2023-12-20T12:40:25;1.58;;;1.05;;
35693;SDS011;21812;55.536;37.664;2023-12-20T12:42:51;2.38;;;1.88;;
35693;SDS011;21812;55.536;37.664;2023-12-20T12:45:16;3.92;;;1.80;;
35693;SDS011;21812;55.536;37.664;2023-12-20T12:47:42;2.78;;;1.70;;
35693;SDS011;21812;55.536;37.664;2023-12-20T12:50:08;2.03;;;1.50;;
35693;SDS011;21812;55.536;37.664;2023-12-20T12:52:34;3.45;;;1.50;;
35693;SDS011;21812;55.536;37.664;2023-12-20T12:55:00;3.45;;;2.22;;
35693;SDS011;21812;55.536;37.664;2023-12-20T12:57:26;2.55;;;1.65;;
35693;SDS011;21812;55.536;37.664;2023-12-20T12:59:52;3.97;;;1.90;;
35693;SDS011;21812;55.536;37.664;2023-12-20T13:02:17;2.00;;;1.80;;
35693;SDS011;21812;55.536;37.664;2023-12-20T13:04:44;2.00;;;1.63;;
35693;SDS011;21812;55.536;37.664;2023-12-20T13:07:09;2.47;;;2.08;;
35693;SDS011;21812;55.536;37.664;2023-12-20T13:09:39;2.30;;;1.42;;
35693;SDS011;21812;55.536;37.664;2023-12-20T13:12:05;4.43;;;1.60;;
35693;SDS011;21812;55.536;37.664;2023-12-20T13:14:32;5.15;;;1.83;;
35693;SDS011;21812;55.536;37.664;2023-12-20T13:17:00;3.00;;;1.80;;
35693;SDS011;21812;55.536;37.664;2023-12-20T13:19:26;1.70;;;1.27;;
35693;SDS011;21812;55.536;37.664;2023-12-20T13:21:52;1.40;;;1.30;;
35693;SDS011;21812;55.536;37.664;2023-12-20T13:24:18;2.13;;;1.67;;
35693;SDS011;21812;55.536;37.664;2023-12-20T13:26:44;4.15;;;1.50;;
35693;SDS011;21812;55.536;37.664;2023-12-20T13:29:10;1.60;;;1.48;;
35693;SDS011;21812;55.536;37.664;2023-12-20T13:31:35;5.05;;;1.85;;
35693;SDS011;21812;55.536;37.664;2023-12-20T13:34:02;2.47;;;1.60;;
35693;SDS011;21812;55.536;37.664;2023-12-20T13:36:27;4.15;;;1.90;;
35693;SDS011;21812;55.536;37.664;2023-12-20T13:38:53;4.57;;;1.40;;
35693;SDS011;21812;55.536;37.664;2023-12-20T13:41:19;8.05;;;2.95;;
35693;SDS011;21812;55.536;37.664;2023-12-20T13:43:45;2.08;;;1.60;;
35693;SDS011;21812;55.536;37.664;2023-12-20T13:46:11;2.55;;;1.63;;
35693;SDS011;21812;55.536;37.664;2023-12-20T13:48:37;1.52;;;1.20;;
35693;SDS011;21812;55.536;37.664;2023-12-20T13:51:03;3.75;;;1.50;;
35693;SDS011;21812;55.536;37.664;2023-12-20T13:53:29;2.13;;;1.40;;
35693;SDS011;21812;55.536;37.664;2023-12-20T13:55:54;3.65;;;1.27;;
35693;SDS011;21812;55.536;37.664;2023-12-20T13:58:20;3.67;;;2.00;;
35693;SDS011;21812;55.536;37.664;2023-12-20T14:00:46;3.45;;;1.27;;
35693;SDS011;21812;55.536;37.664;2023-12-20T14:03:11;2.03;;;1.17;;
35693;SDS011;21812;55.536;37.664;2023-12-20T14:05:37;1.83;;;1.30;;
35693;SDS011;21812;55.536;37.664;2023-12-20T14:08:03;1.52;;;1.42;;
35693;SDS011;21812;55.536;37.664;2023-12-20T14:10:29;2.15;;;1.35;;
35693;SDS011;21812;55.536;37.664;2023-12-20T14:12:55;1.27;;;1.15;;
35693;SDS011;21812;55.536;37.664;2023-12-20T14:15:21;2.58;;;1.85;;
35693;SDS011;21812;55.536;37.664;2023-12-20T14:17:47;3.30;;;1.20;;
35693;SDS011;21812;55.536;37.664;2023-12-20T14:20:12;2.15;;;1.45;;
35693;SDS011;21812;55.536;37.664;2023-12-20T14:22:38;2.40;;;1.30;;
35693;SDS011;21812;55.536;37.664;2023-12-20T14:25:12;2.75;;;1.58;;
35693;SDS011;21812;55.536;37.664;2023-12-20T14:27:39;2.15;;;1.15;;
35693;SDS011;21812;55.536;37.664;2023-12-20T14:30:06;2.25;;;0.90;;
35693;SDS011;21812;55.536;37.664;2023-12-20T14:32:34;1.65;;;1.55;;
35693;SDS011;21812;55.536;37.664;2023-12-20T14:35:02;1.58;;;1.27;;